Time;durP1;ratioP1;P1;durP2;ratioP2;P2;SDS_P1;SDS_P2;PMS_P1;PMS_P2;Temp;Humidity;BMP_temperature;BMP_pressure;BME280_temperature;BME280_humidity;BME280_pressure;Samples;Min_cycle;Max_cycle;Signal;HPM_P1;HPM_P2
2021/09/20 00:02:07;;;;;;;5.07;4.57;;;14.30;99.10;;;;;;5092013;28;20034;-35
2021/09/20 00:04:36;;;;;;;4.57;4.18;;;14.20;99.10;;;;;;5110018;28;20069;-36
2021/09/20 00:07:01;;;;;;;6.18;4.50;;;14.20;99.20;;;;;;5109499;28;20043;-38
2021/09/20 00:09:27;;;;;;;6.30;4.68;;;14.20;99.20;;;;;;5108665;28;20431;-39
2021/09/20 00:11:52;;;;;;;4.47;4.07;;;14.10;99.20;;;;;;5108689;28;20019;-38
2021/09/20 00:14:18;;;;;;;5.07;4.50;;;14.10;99.20;;;;;;5109443;28;20023;-40
2021/09/20 00:16:46;;;;;;;6.05;4.53;;;14.00;99.20;;;;;;5107789;28;20044;-38
2021/09/20 00:19:15;;;;;;;5.70;4.43;;;14.00;99.20;;;;;;5109393;28;20102;-36
2021/09/20 00:21:41;;;;;;;5.35;4.72;;;13.90;99.20;;;;;;5111033;28;20544;-37
2021/09/20 00:24:06;;;;;;;4.72;4.20;;;13.90;99.20;;;;;;5111040;28;20537;-36
2021/09/20 00:26:32;;;;;;;5.40;4.53;;;13.90;99.20;;;;;;5111247;28;20024;-39
2021/09/20 00:29:03;;;;;;;5.03;4.50;;;13.90;99.30;;;;;;5108635;28;20032;-36
2021/09/20 00:31:49;;;;;;;4.88;4.38;;;13.80;99.30;;;;;;5111033;28;20020;-38
2021/09/20 00:34:21;;;;;;;5.43;4.78;;;13.80;99.30;;;;;;5110216;28;20463;-38
2021/09/20 00:36:46;;;;;;;7.28;4.78;;;13.80;99.30;;;;;;5110031;28;20053;-38
2021/09/20 00:39:33;;;;;;;5.25;4.75;;;13.70;99.30;;;;;;5110984;28;20024;-38
2021/09/20 00:41:58;;;;;;;4.97;4.45;;;13.70;99.40;;;;;;5110109;28;20027;-38
2021/09/20 00:44:24;;;;;;;5.60;4.50;;;13.70;99.50;;;;;;5110526;28;20512;-38
2021/09/20 00:46:53;;;;;;;5.68;4.40;;;13.60;99.50;;;;;;5109526;28;20062;-38
2021/09/20 00:49:18;;;;;;;7.90;5.05;;;13.60;99.60;;;;;;5109794;28;20039;-38
2021/09/20 00:51:44;;;;;;;6.47;5.40;;;13.60;99.70;;;;;;5109224;28;20012;-37
2021/09/20 00:54:09;;;;;;;6.03;4.75;;;13.50;99.70;;;;;;5108384;28;20035;-34
2021/09/20 00:56:36;;;;;;;6.47;4.78;;;13.50;99.80;;;;;;5109173;28;20043;-39
2021/09/20 00:59:02;;;;;;;6.25;5.07;;;13.40;99.80;;;;;;5107142;28;20027;-38
2021/09/20 01:01:27;;;;;;;5.13;4.63;;;13.40;99.90;;;;;;5109112;28;20034;-34
2021/09/20 01:03:53;;;;;;;5.80;4.60;;;13.40;99.90;;;;;;5108101;28;20102;-39
2021/09/20 01:06:21;;;;;;;6.32;5.47;;;13.30;99.90;;;;;;5108908;28;20398;-36
2021/09/20 01:08:47;;;;;;;5.55;4.93;;;13.30;99.90;;;;;;5110029;28;20044;-38
2021/09/20 01:11:13;;;;;;;5.63;5.13;;;13.30;99.90;;;;;;5109865;28;20022;-37
2021/09/20 01:13:44;;;;;;;6.57;4.82;;;13.20;99.90;;;;;;5110149;28;20027;-40
2021/09/20 01:16:19;;;;;;;6.25;4.70;;;13.20;99.90;;;;;;5110171;28;20044;-39
2021/09/20 01:18:45;;;;;;;7.57;5.20;;;13.20;99.90;;;;;;5109450;28;20023;-36
2021/09/20 01:21:13;;;;;;;7.53;5.80;;;13.10;99.90;;;;;;5110015;28;20016;-39
2021/09/20 01:23:43;;;;;;;6.32;4.80;;;13.10;99.90;;;;;;5110865;28;20062;-38
2021/09/20 01:26:11;;;;;;;5.63;4.85;;;13.00;99.90;;;;;;5109407;28;20383;-39
2021/09/20 01:28:36;;;;;;;5.63;5.03;;;13.00;99.90;;;;;;5109336;28;20036;-37
2021/09/20 01:31:02;;;;;;;5.75;4.88;;;13.00;99.90;;;;;;5109100;28;20047;-38
2021/09/20 01:33:31;;;;;;;4.88;4.38;;;12.90;99.90;;;;;;5110549;28;20118;-35
2021/09/20 01:35:57;;;;;;;5.97;4.90;;;13.00;99.90;;;;;;5115733;28;20471;-37
2021/09/20 01:38:22;;;;;;;6.60;5.15;;;12.90;99.90;;;;;;5117348;28;20027;-39
2021/09/20 01:40:48;;;;;;;6.43;5.20;;;12.90;99.90;;;;;;5115603;28;20020;-37
2021/09/20 01:43:16;;;;;;;5.47;4.97;;;12.80;99.90;;;;;;5116062;28;20034;-36
2021/09/20 01:45:42;;;;;;;6.15;5.00;;;12.80;99.90;;;;;;5116664;28;20489;-39
2021/09/20 01:48:08;;;;;;;5.68;5.03;;;12.80;99.90;;;;;;5116438;28;20032;-37
2021/09/20 01:50:34;;;;;;;5.65;4.88;;;12.80;99.90;;;;;;5116562;28;20022;-37
2021/09/20 01:52:59;;;;;;;6.20;5.60;;;12.80;99.90;;;;;;5116816;28;20208;-37
2021/09/20 01:55:25;;;;;;;7.18;5.20;;;12.70;99.90;;;;;;5116121;28;20535;-37
2021/09/20 01:57:50;;;;;;;7.15;5.05;;;12.70;99.90;;;;;;5116110;28;20063;-37
2021/09/20 02:00:19;;;;;;;7.18;5.35;;;12.70;99.90;;;;;;5115076;28;20466;-38
2021/09/20 02:02:45;;;;;;;5.95;4.70;;;12.70;99.90;;;;;;5115347;28;20054;-37
2021/09/20 02:05:12;;;;;;;5.50;4.90;;;12.70;99.90;;;;;;5115694;28;20440;-33
2021/09/20 02:07:41;;;;;;;7.32;5.22;;;12.60;99.90;;;;;;5115032;28;20015;-42
2021/09/20 02:10:08;;;;;;;6.13;4.72;;;12.70;99.90;;;;;;5114535;28;20458;-40
2021/09/20 02:12:34;;;;;;;6.22;4.63;;;12.60;99.90;;;;;;5114978;28;20043;-37
2021/09/20 02:15:00;;;;;;;4.97;4.47;;;12.60;99.90;;;;;;5114060;28;20062;-36
2021/09/20 02:17:25;;;;;;;5.20;4.47;;;12.60;99.90;;;;;;5115525;28;20026;-38
2021/09/20 02:19:51;;;;;;;5.03;4.50;;;12.60;99.90;;;;;;5113735;28;20550;-37
2021/09/20 02:22:16;;;;;;;4.82;4.32;;;12.50;99.90;;;;;;5116014;28;20027;-40
2021/09/20 02:24:43;;;;;;;6.38;4.80;;;12.50;99.90;;;;;;5115340;28;20051;-40
2021/09/20 02:27:09;;;;;;;6.47;4.40;;;12.50;99.90;;;;;;5102412;28;20015;-38
2021/09/20 02:29:40;;;;;;;5.47;4.50;;;12.50;99.90;;;;;;5116056;28;20437;-38
2021/09/20 02:32:09;;;;;;;7.22;4.65;;;12.50;99.90;;;;;;5115593;28;20040;-39
2021/09/20 02:34:34;;;;;;;6.50;4.82;;;12.50;99.90;;;;;;5116724;28;20023;-39
2021/09/20 02:37:00;;;;;;;5.88;4.93;;;12.50;99.90;;;;;;5115476;28;20033;-39
2021/09/20 02:39:26;;;;;;;5.28;4.72;;;12.40;99.90;;;;;;5116701;28;20093;-38
2021/09/20 02:41:51;;;;;;;5.63;5.03;;;12.50;99.90;;;;;;5115824;28;20024;-32
2021/09/20 02:44:17;;;;;;;5.95;4.70;;;12.40;99.90;;;;;;5115874;28;20024;-39
2021/09/20 02:46:42;;;;;;;5.80;5.15;;;12.40;99.90;;;;;;5112304;28;20020;-34
2021/09/20 02:49:08;;;;;;;6.05;4.90;;;12.40;99.90;;;;;;5112236;28;20032;-39
2021/09/20 02:51:34;;;;;;;6.45;4.68;;;12.40;99.90;;;;;;5112712;28;20023;-37
2021/09/20 02:53:59;;;;;;;5.72;4.78;;;12.30;99.90;;;;;;5112700;28;20078;-36
2021/09/20 02:56:25;;;;;;;5.53;4.82;;;12.30;99.90;;;;;;5112493;28;20023;-37
2021/09/20 02:58:50;;;;;;;5.63;4.80;;;12.30;99.90;;;;;;5112335;28;20039;-41
2021/09/20 03:01:19;;;;;;;6.72;4.85;;;12.30;99.90;;;;;;5112698;28;20048;-41
2021/09/20 03:03:45;;;;;;;6.78;4.22;;;12.30;99.90;;;;;;5111648;28;20039;-37
2021/09/20 03:06:10;;;;;;;5.85;5.03;;;12.30;99.90;;;;;;5113125;28;20015;-38
2021/09/20 03:08:36;;;;;;;5.40;4.35;;;12.20;99.90;;;;;;5112271;28;20543;-40
2021/09/20 03:11:01;;;;;;;5.60;4.38;;;12.20;99.90;;;;;;5110799;28;20530;-39
2021/09/20 03:13:27;;;;;;;5.75;4.70;;;12.20;99.90;;;;;;5111154;28;20447;-34
2021/09/20 03:15:55;;;;;;;4.93;4.25;;;12.20;99.90;;;;;;5110577;28;20494;-39
2021/09/20 03:18:21;;;;;;;5.55;4.70;;;12.20;99.90;;;;;;5110469;28;20420;-37
2021/09/20 03:20:46;;;;;;;5.65;4.53;;;12.20;99.90;;;;;;5110525;28;20084;-33
2021/09/20 03:23:12;;;;;;;6.32;4.50;;;12.10;99.90;;;;;;5112064;28;20114;-34
2021/09/20 03:25:40;;;;;;;5.80;4.65;;;12.10;99.90;;;;;;5109558;28;20035;-37
2021/09/20 03:28:05;;;;;;;5.00;4.00;;;12.10;99.90;;;;;;5110577;28;20031;-35
2021/09/20 03:30:34;;;;;;;5.35;4.57;;;12.10;99.90;;;;;;5110778;28;20023;-39
2021/09/20 03:32:59;;;;;;;5.82;4.32;;;12.00;99.90;;;;;;5111140;28;20115;-36
2021/09/20 03:35:25;;;;;;;4.25;3.85;;;12.00;99.90;;;;;;5111764;28;20119;-40
2021/09/20 03:37:53;;;;;;;5.35;4.68;;;12.00;99.90;;;;;;5111419;28;20027;-39
2021/09/20 03:40:19;;;;;;;5.43;4.20;;;12.00;99.90;;;;;;5111397;28;20459;-38
2021/09/20 03:42:45;;;;;;;7.18;4.60;;;12.00;99.90;;;;;;5111877;28;20424;-38
2021/09/20 03:45:14;;;;;;;5.68;5.00;;;12.00;99.90;;;;;;5111529;28;20102;-33
2021/09/20 03:47:40;;;;;;;5.43;4.68;;;12.00;99.90;;;;;;5111614;28;20416;-39
2021/09/20 03:50:07;;;;;;;7.10;4.95;;;11.90;99.90;;;;;;5111385;28;20028;-38
2021/09/20 03:52:33;;;;;;;6.85;4.60;;;11.90;99.90;;;;;;5111457;28;20042;-37
2021/09/20 03:54:59;;;;;;;5.90;5.00;;;11.90;99.90;;;;;;5110956;28;20542;-39
2021/09/20 03:57:27;;;;;;;4.38;3.97;;;11.90;99.90;;;;;;5111563;28;20019;-40
2021/09/20 03:59:53;;;;;;;6.38;5.05;;;11.90;99.90;;;;;;5110720;28;20016;-38
2021/09/20 04:02:18;;;;;;;5.65;4.57;;;11.90;99.90;;;;;;5111793;28;20382;-35
2021/09/20 04:04:44;;;;;;;5.78;4.60;;;11.80;99.90;;;;;;5111483;28;20028;-37
2021/09/20 04:07:12;;;;;;;6.30;4.95;;;11.80;99.90;;;;;;5110961;28;20535;-39
2021/09/20 04:09:41;;;;;;;7.38;5.15;;;11.80;99.90;;;;;;5111402;28;20032;-37
2021/09/20 04:12:09;;;;;;;6.57;5.43;;;11.80;99.90;;;;;;5110738;28;20028;-39
2021/09/20 04:14:36;;;;;;;6.45;5.10;;;11.80;99.90;;;;;;5111090;28;20043;-38
2021/09/20 04:17:02;;;;;;;5.40;4.90;;;11.80;99.90;;;;;;5110653;28;20088;-36
2021/09/20 04:19:27;;;;;;;6.70;4.95;;;11.80;99.90;;;;;;5110765;28;20027;-38
2021/09/20 04:21:52;;;;;;;6.82;5.30;;;11.70;99.90;;;;;;5107601;28;20096;-36
2021/09/20 04:24:24;;;;;;;5.63;4.78;;;11.70;99.90;;;;;;5109949;28;20554;-39
2021/09/20 04:26:56;;;;;;;5.57;4.97;;;11.70;99.90;;;;;;5108723;28;20035;-35
2021/09/20 04:29:27;;;;;;;6.82;5.60;;;11.70;99.90;;;;;;5110030;28;20031;-36
2021/09/20 04:31:56;;;;;;;5.95;4.75;;;11.70;99.90;;;;;;5109936;28;20028;-40
2021/09/20 04:34:23;;;;;;;6.18;5.28;;;11.70;99.90;;;;;;5109526;28;20089;-39
2021/09/20 04:36:48;;;;;;;5.68;5.07;;;11.70;99.90;;;;;;5110005;28;20119;-38
2021/09/20 04:39:14;;;;;;;6.93;5.35;;;11.70;99.90;;;;;;5111438;28;20522;-37
2021/09/20 04:41:43;;;;;;;5.45;4.80;;;11.70;99.90;;;;;;5108541;28;20084;-36
2021/09/20 04:44:08;;;;;;;5.93;4.53;;;11.70;99.90;;;;;;5108579;28;20118;-38
2021/09/20 04:46:34;;;;;;;6.72;5.38;;;11.60;99.90;;;;;;5108452;28;20020;-37
2021/09/20 04:48:59;;;;;;;6.63;5.40;;;11.70;99.90;;;;;;5107566;28;20062;-39
2021/09/20 04:51:28;;;;;;;5.97;5.38;;;11.70;99.90;;;;;;5109438;28;20038;-39
2021/09/20 04:53:54;;;;;;;6.43;5.28;;;11.70;99.90;;;;;;5101600;28;20027;-40
2021/09/20 04:56:20;;;;;;;7.30;5.97;;;11.70;99.90;;;;;;5108972;28;20202;-37
2021/09/20 04:58:45;;;;;;;9.82;6.28;;;11.60;99.90;;;;;;5108099;28;20114;-37
2021/09/20 05:01:11;;;;;;;7.78;6.40;;;11.70;99.90;;;;;;5109469;28;20098;-37
2021/09/20 05:03:37;;;;;;;9.60;5.82;;;11.70;99.90;;;;;;5109562;28;20111;-39
2021/09/20 05:06:02;;;;;;;7.38;6.32;;;11.60;99.90;;;;;;5110860;28;20463;-39
2021/09/20 05:08:32;;;;;;;7.22;5.68;;;11.60;99.90;;;;;;5109876;28;20043;-37
2021/09/20 05:10:59;;;;;;;7.10;5.80;;;11.60;99.90;;;;;;5109469;28;20019;-37
2021/09/20 05:13:24;;;;;;;7.15;5.85;;;11.60;99.90;;;;;;5095715;28;20012;-38
2021/09/20 05:15:50;;;;;;;9.00;5.63;;;11.60;99.90;;;;;;5109332;28;20058;-38
2021/09/20 05:18:15;;;;;;;8.45;6.10;;;11.60;99.90;;;;;;5109930;28;20482;-32
2021/09/20 05:20:44;;;;;;;9.48;6.55;;;11.50;99.90;;;;;;5106933;28;20023;-39
2021/09/20 05:23:09;;;;;;;8.02;6.80;;;11.50;99.90;;;;;;5108544;28;20024;-39
2021/09/20 05:25:36;;;;;;;10.35;6.00;;;11.50;99.90;;;;;;5108607;28;20012;-38
2021/09/20 05:28:02;;;;;;;7.88;6.38;;;11.50;99.90;;;;;;5108951;28;20023;-39
2021/09/20 05:30:28;;;;;;;9.23;6.93;;;11.50;99.90;;;;;;5108132;28;20031;-38
2021/09/20 05:32:53;;;;;;;7.80;6.00;;;11.50;99.90;;;;;;5107108;28;20134;-41
2021/09/20 05:35:19;;;;;;;7.13;6.10;;;11.50;99.90;;;;;;5106830;28;20101;-40
2021/09/20 05:38:03;;;;;;;12.63;7.40;;;11.50;99.90;;;;;;5095358;28;20021;-37
2021/09/20 05:40:37;;;;;;;8.32;6.90;;;11.40;99.90;;;;;;5101929;28;20043;-36
2021/09/20 05:43:12;;;;;;;8.55;7.05;;;11.40;99.90;;;;;;5107158;28;20063;-37
2021/09/20 05:45:38;;;;;;;8.35;6.82;;;11.40;99.90;;;;;;5099675;28;20096;-38
2021/09/20 05:48:04;;;;;;;10.27;7.45;;;11.40;99.90;;;;;;5107873;28;20482;-39
2021/09/20 05:50:30;;;;;;;8.48;6.60;;;11.40;99.90;;;;;;5108701;28;20114;-39
2021/09/20 05:52:56;;;;;;;6.95;6.20;;;11.40;99.90;;;;;;5108790;28;20387;-39
2021/09/20 05:55:22;;;;;;;7.47;6.22;;;11.40;99.90;;;;;;5108093;28;20479;-39
2021/09/20 05:57:48;;;;;;;8.80;6.80;;;11.30;99.90;;;;;;5108670;28;20182;-35
2021/09/20 06:00:15;;;;;;;7.85;6.53;;;11.40;99.90;;;;;;5108784;28;20530;-38
2021/09/20 06:02:43;;;;;;;8.50;6.88;;;11.40;99.90;;;;;;5109229;28;20048;-36
2021/09/20 06:05:11;;;;;;;8.20;6.45;;;11.40;99.90;;;;;;5100999;28;20028;-38
2021/09/20 06:07:40;;;;;;;8.00;6.60;;;11.40;99.90;;;;;;5101120;28;20103;-37
2021/09/20 06:10:13;;;;;;;7.40;6.60;;;11.40;99.90;;;;;;5107642;28;20035;-40
2021/09/20 06:12:39;;;;;;;7.22;6.43;;;11.40;99.90;;;;;;5109296;28;20020;-38
2021/09/20 06:15:06;;;;;;;9.25;6.85;;;11.50;99.90;;;;;;5109053;28;20019;-37
2021/09/20 06:17:32;;;;;;;8.18;7.00;;;11.50;99.90;;;;;;5100532;28;20050;-37
2021/09/20 06:19:57;;;;;;;8.75;6.97;;;11.50;99.90;;;;;;5109838;28;20468;-36
2021/09/20 06:22:23;;;;;;;7.65;6.80;;;11.60;99.90;;;;;;5113224;28;20024;-37
2021/09/20 06:24:49;;;;;;;9.45;7.28;;;11.60;99.90;;;;;;5111664;28;20027;-44
2021/09/20 06:27:14;;;;;;;10.82;7.10;;;11.60;99.90;;;;;;5090292;28;20024;-39
2021/09/20 06:29:40;;;;;;;8.38;5.97;;;11.60;99.90;;;;;;5085384;28;20028;-41
2021/09/20 06:32:06;;;;;;;9.43;6.68;;;11.60;99.90;;;;;;5113508;28;20020;-41
2021/09/20 06:34:31;;;;;;;9.68;7.28;;;11.60;99.90;;;;;;5112152;28;20049;-38
2021/09/20 06:36:57;;;;;;;7.95;6.55;;;11.70;99.90;;;;;;5112580;28;20047;-43
2021/09/20 06:39:23;;;;;;;7.65;6.57;;;11.70;99.90;;;;;;5112043;28;20077;-42
2021/09/20 06:41:48;;;;;;;8.50;6.85;;;11.80;99.90;;;;;;5110769;28;20550;-38
2021/09/20 06:44:14;;;;;;;7.60;6.80;;;11.80;99.90;;;;;;5103063;28;20564;-37
2021/09/20 06:46:45;;;;;;;9.05;6.43;;;11.80;99.90;;;;;;5100768;28;20020;-35
2021/09/20 06:49:12;;;;;;;8.52;6.43;;;11.90;99.90;;;;;;5112182;28;20035;-37
2021/09/20 06:51:38;;;;;;;8.65;6.70;;;12.00;99.90;;;;;;5112141;28;20011;-39
2021/09/20 06:54:04;;;;;;;10.82;7.13;;;12.00;99.90;;;;;;5112476;28;20030;-34
2021/09/20 06:56:29;;;;;;;8.82;7.22;;;12.20;99.90;;;;;;5112991;28;20022;-36
2021/09/20 06:58:55;;;;;;;8.45;7.25;;;12.20;99.90;;;;;;5111497;28;20756;-42
2021/09/20 07:01:20;;;;;;;8.45;6.88;;;12.30;99.90;;;;;;5111595;28;20039;-37
2021/09/20 07:03:46;;;;;;;7.78;6.55;;;12.40;99.90;;;;;;5111400;28;20058;-35
2021/09/20 07:06:12;;;;;;;8.93;6.88;;;12.40;99.90;;;;;;5111044;28;20493;-39
2021/09/20 07:08:37;;;;;;;8.05;6.97;;;12.50;99.90;;;;;;5109053;28;20031;-35
2021/09/20 07:11:03;;;;;;;7.50;6.30;;;12.60;99.90;;;;;;5092171;28;20073;-37
2021/09/20 07:13:29;;;;;;;8.55;6.82;;;12.70;99.90;;;;;;5110695;28;20069;-38
2021/09/20 07:15:54;;;;;;;8.32;6.45;;;12.70;99.90;;;;;;5111995;28;20429;-38
2021/09/20 07:18:20;;;;;;;7.53;6.60;;;12.80;99.90;;;;;;5112567;28;20020;-38
2021/09/20 07:20:46;;;;;;;10.35;6.55;;;12.80;99.90;;;;;;5112409;28;20519;-39
2021/09/20 07:23:12;;;;;;;8.52;6.15;;;12.90;99.90;;;;;;5111846;28;20106;-40
2021/09/20 07:25:38;;;;;;;7.10;6.40;;;13.00;99.90;;;;;;5111376;28;20011;-38
2021/09/20 07:28:05;;;;;;;9.07;6.90;;;13.00;99.80;;;;;;5111180;28;20028;-37
2021/09/20 07:30:31;;;;;;;7.40;6.22;;;13.00;99.60;;;;;;5112410;28;20024;-39
2021/09/20 07:32:56;;;;;;;7.90;6.82;;;13.10;99.50;;;;;;5109618;28;20035;-40
2021/09/20 07:35:25;;;;;;;7.20;5.70;;;13.10;99.40;;;;;;5087246;28;20404;-38
2021/09/20 07:37:54;;;;;;;9.18;7.45;;;13.20;99.30;;;;;;5089060;28;20026;-35
2021/09/20 07:40:25;;;;;;;8.52;6.22;;;13.30;99.20;;;;;;5112368;28;20346;-39
2021/09/20 07:42:56;;;;;;;10.10;7.70;;;13.30;99.10;;;;;;5111282;28;20403;-42
2021/09/20 07:45:25;;;;;;;9.07;7.40;;;13.30;98.80;;;;;;5110893;28;20027;-35
2021/09/20 07:47:51;;;;;;;8.40;7.50;;;13.30;98.70;;;;;;5109758;28;20034;-39
2021/09/20 07:50:18;;;;;;;8.05;7.10;;;13.40;98.70;;;;;;5110330;28;20031;-38
2021/09/20 07:52:45;;;;;;;11.27;7.25;;;13.40;98.70;;;;;;5109848;28;20099;-40
2021/09/20 07:55:11;;;;;;;8.13;7.18;;;13.40;98.60;;;;;;5109051;28;20020;-42
2021/09/20 07:57:37;;;;;;;8.55;7.63;;;13.40;98.70;;;;;;5110151;28;20140;-37
2021/09/20 08:00:04;;;;;;;10.43;8.18;;;13.40;98.70;;;;;;5110359;28;20019;-37
2021/09/20 08:02:30;;;;;;;8.25;7.32;;;13.50;98.70;;;;;;5112269;28;20023;-39
2021/09/20 08:04:55;;;;;;;8.80;7.20;;;13.60;98.90;;;;;;5093370;28;20093;-38
2021/09/20 08:07:30;;;;;;;7.18;6.47;;;13.60;98.60;;;;;;5109954;28;20486;-36
2021/09/20 08:09:55;;;;;;;8.13;6.65;;;13.60;98.60;;;;;;5110662;28;20073;-38
2021/09/20 08:12:21;;;;;;;7.35;6.50;;;13.70;98.70;;;;;;5108942;28;20051;-39
2021/09/20 08:14:50;;;;;;;6.90;5.97;;;13.70;98.70;;;;;;5109981;28;20023;-39
2021/09/20 08:17:15;;;;;;;8.02;6.80;;;13.80;98.70;;;;;;5095969;28;20557;-40
2021/09/20 08:19:41;;;;;;;8.43;6.63;;;13.80;98.50;;;;;;5096547;28;20023;-41
2021/09/20 08:22:06;;;;;;;6.22;5.63;;;13.90;98.50;;;;;;5090311;28;20116;-36
2021/09/20 08:24:33;;;;;;;10.13;6.80;;;14.00;98.60;;;;;;5089768;28;20098;-36
2021/09/20 08:26:59;;;;;;;6.93;6.22;;;14.00;98.40;;;;;;5096576;28;20020;-36
2021/09/20 08:29:24;;;;;;;8.85;6.90;;;14.10;98.30;;;;;;5098022;28;20028;-34
2021/09/20 08:31:50;;;;;;;8.18;7.10;;;14.10;98.10;;;;;;5095892;28;20021;-39
2021/09/20 08:34:16;;;;;;;7.35;6.32;;;14.20;98.10;;;;;;5084375;28;20058;-39
2021/09/20 08:36:41;;;;;;;6.80;6.03;;;14.20;98.00;;;;;;5086412;28;20028;-40
2021/09/20 08:39:08;;;;;;;7.00;6.30;;;14.20;97.80;;;;;;5086065;28;20662;-37
2021/09/20 08:41:34;;;;;;;8.15;6.75;;;14.30;97.80;;;;;;5091742;28;20032;-40
2021/09/20 08:44:03;;;;;;;7.32;6.63;;;14.30;97.70;;;;;;5078507;28;20017;-35
2021/09/20 08:46:29;;;;;;;6.97;6.28;;;14.40;97.60;;;;;;5098347;28;20101;-37
2021/09/20 08:48:54;;;;;;;6.43;5.32;;;14.40;97.50;;;;;;5109586;28;20360;-37
2021/09/20 08:51:20;;;;;;;7.88;5.90;;;14.40;97.40;;;;;;5111268;28;20073;-40
2021/09/20 08:53:51;;;;;;;6.95;5.60;;;14.50;97.40;;;;;;5110295;28;20500;-37
2021/09/20 08:56:16;;;;;;;6.80;6.10;;;14.50;97.30;;;;;;5102950;28;20061;-39
2021/09/20 08:58:42;;;;;;;6.35;5.75;;;14.60;97.30;;;;;;5101774;28;20054;-40
2021/09/20 09:01:08;;;;;;;6.22;5.63;;;14.60;97.20;;;;;;5094385;28;20024;-38
2021/09/20 09:03:34;;;;;;;6.53;5.88;;;14.70;97.10;;;;;;5088794;28;20423;-37
2021/09/20 09:06:00;;;;;;;7.53;5.93;;;14.70;96.90;;;;;;5099864;28;20027;-39
2021/09/20 09:08:40;;;;;;;5.72;5.13;;;14.80;96.70;;;;;;5110328;28;20030;-38
2021/09/20 09:11:14;;;;;;;6.63;5.28;;;14.80;96.70;;;;;;5109045;28;20024;-37
2021/09/20 09:13:42;;;;;;;5.20;4.60;;;14.80;96.70;;;;;;5094499;28;20032;-39
2021/09/20 09:16:16;;;;;;;5.55;4.95;;;14.80;96.70;;;;;;5098454;28;20176;-39
2021/09/20 09:19:03;;;;;;;5.30;4.75;;;14.90;96.60;;;;;;5109859;28;20390;-35
2021/09/20 09:21:37;;;;;;;6.45;5.53;;;15.00;96.60;;;;;;5090573;28;20074;-37
2021/09/20 09:24:16;;;;;;;5.70;5.18;;;15.00;96.40;;;;;;5081235;28;20032;-41
2021/09/20 09:26:56;;;;;;;6.22;5.63;;;15.10;96.50;;;;;;5085551;28;20020;-34
2021/09/20 09:29:22;;;;;;;7.22;6.20;;;15.10;96.20;;;;;;5080846;28;20077;-40
2021/09/20 09:31:54;;;;;;;8.48;6.00;;;15.10;95.60;;;;;;5085430;28;20032;-39
2021/09/20 09:34:21;;;;;;;6.38;5.43;;;15.20;95.50;;;;;;5079402;28;20025;-39
2021/09/20 09:36:47;;;;;;;6.88;6.18;;;15.20;95.40;;;;;;5086211;28;20479;-39
2021/09/20 09:39:13;;;;;;;6.50;5.78;;;15.30;95.10;;;;;;5108862;28;20132;-40
2021/09/20 09:41:43;;;;;;;6.70;6.00;;;15.30;94.70;;;;;;5110096;28;20016;-39
2021/09/20 09:44:12;;;;;;;5.70;5.10;;;15.30;94.70;;;;;;5110220;28;20023;-37
2021/09/20 09:46:41;;;;;;;5.40;4.90;;;15.30;94.80;;;;;;5109175;28;20337;-35
2021/09/20 09:49:15;;;;;;;6.03;5.00;;;15.40;94.90;;;;;;5109703;28;20077;-38
2021/09/20 09:52:20;;;;;;;6.60;5.38;;;15.40;94.80;;;;;;5109607;28;20035;-36
2021/09/20 09:54:58;;;;;;;6.35;5.30;;;15.40;94.80;;;;;;5094264;28;20023;-38
2021/09/20 09:57:24;;;;;;;5.80;5.15;;;15.50;94.60;;;;;;5113812;28;20022;-36
2021/09/20 09:59:58;;;;;;;8.07;5.32;;;15.50;94.70;;;;;;5113265;28;20030;-37
2021/09/20 10:02:32;;;;;;;6.43;5.20;;;15.50;94.10;;;;;;5113797;28;20030;-38
2021/09/20 10:05:02;;;;;;;5.78;4.50;;;15.60;93.90;;;;;;5112100;28;20111;-40
2021/09/20 10:07:30;;;;;;;3.95;3.55;;;15.60;94.00;;;;;;5111412;28;20642;-37
2021/09/20 10:09:58;;;;;;;5.93;4.57;;;15.70;94.20;;;;;;5112829;28;20363;-39
2021/09/20 10:12:30;;;;;;;5.78;5.15;;;15.70;94.00;;;;;;5112739;28;20091;-36
2021/09/20 10:14:58;;;;;;;5.25;4.47;;;15.80;93.70;;;;;;5111292;28;20035;-36
2021/09/20 10:17:26;;;;;;;5.22;4.28;;;15.90;93.80;;;;;;5102513;28;20035;-38
2021/09/20 10:19:52;;;;;;;4.97;4.47;;;15.90;93.80;;;;;;5109129;28;20040;-39
2021/09/20 10:22:18;;;;;;;4.72;4.28;;;16.00;93.80;;;;;;5114070;28;20016;-39
2021/09/20 10:24:47;;;;;;;5.13;4.38;;;16.10;93.80;;;;;;5112597;28;20028;-37
2021/09/20 10:27:14;;;;;;;7.13;4.10;;;16.20;93.40;;;;;;5113331;28;20375;-38
2021/09/20 10:29:43;;;;;;;5.05;4.22;;;16.30;93.30;;;;;;5113345;28;20035;-38
2021/09/20 10:32:09;;;;;;;5.50;4.80;;;16.40;93.30;;;;;;5113263;28;20491;-38
2021/09/20 10:34:41;;;;;;;4.38;3.97;;;16.40;93.20;;;;;;5113071;28;20528;-38
2021/09/20 10:37:16;;;;;;;7.40;5.70;;;16.40;93.20;;;;;;5072799;28;20016;-42
2021/09/20 10:39:50;;;;;;;5.28;4.78;;;16.50;93.00;;;;;;5103143;28;20312;-44
2021/09/20 10:42:43;;;;;;;5.55;4.97;;;16.50;92.60;;;;;;5074230;28;20039;-39
2021/09/20 10:45:38;;;;;;;6.65;5.20;;;16.60;92.60;;;;;;5103700;28;20032;-39
2021/09/20 10:48:17;;;;;;;4.65;4.25;;;16.70;92.20;;;;;;5050292;28;20036;-39
2021/09/20 10:50:51;;;;;;;5.88;4.40;;;16.80;92.30;;;;;;5100119;28;20016;-37
2021/09/20 10:53:33;;;;;;;5.03;4.53;;;17.00;92.40;;;;;;5082258;28;20475;-37
2021/09/20 10:56:02;;;;;;;5.97;4.80;;;17.00;92.20;;;;;;5100553;28;20036;-37
2021/09/20 10:58:39;;;;;;;5.45;4.30;;;17.20;91.70;;;;;;5101541;28;20024;-37
2021/09/20 11:01:10;;;;;;;4.95;4.47;;;17.30;91.60;;;;;;5106073;28;20039;-36
2021/09/20 11:03:43;;;;;;;5.78;4.45;;;17.40;91.60;;;;;;5105323;28;20023;-37
2021/09/20 11:06:30;;;;;;;5.47;4.97;;;17.50;91.40;;;;;;5098724;28;20023;-40
2021/09/20 11:09:01;;;;;;;5.88;4.60;;;17.50;91.00;;;;;;5111533;28;20059;-38
2021/09/20 11:11:42;;;;;;;5.72;4.45;;;17.60;91.00;;;;;;5111572;28;20061;-35
2021/09/20 11:14:34;;;;;;;5.85;5.25;;;17.60;90.90;;;;;;5110881;28;20032;-35
2021/09/20 11:17:02;;;;;;;5.97;4.50;;;17.50;90.70;;;;;;5100298;28;20051;-38
2021/09/20 11:19:33;;;;;;;6.25;5.65;;;17.40;90.70;;;;;;5111324;28;20270;-37
2021/09/20 11:22:14;;;;;;;5.95;5.38;;;17.30;90.50;;;;;;5110537;28;20250;-39
2021/09/20 11:24:42;;;;;;;6.38;4.93;;;17.10;90.30;;;;;;5110417;28;20108;-39
2021/09/20 11:27:26;;;;;;;5.32;4.53;;;17.00;90.40;;;;;;5111837;28;20058;-37
2021/09/20 11:30:05;;;;;;;4.82;4.32;;;17.00;90.70;;;;;;5110670;28;20402;-37
2021/09/20 11:32:32;;;;;;;4.60;4.18;;;17.10;90.80;;;;;;5111723;28;20063;-33
2021/09/20 11:35:00;;;;;;;4.60;4.13;;;17.20;90.70;;;;;;5111438;28;20030;-40
2021/09/20 11:37:27;;;;;;;3.78;3.47;;;17.40;90.60;;;;;;5111593;28;20505;-35
2021/09/20 11:39:59;;;;;;;4.10;3.70;;;17.50;90.60;;;;;;5111702;28;20028;-36
2021/09/20 11:42:40;;;;;;;6.07;4.97;;;17.80;90.90;;;;;;5110462;28;20031;-38
2021/09/20 11:45:19;;;;;;;4.80;4.28;;;18.00;90.40;;;;;;5111558;28;20035;-39
2021/09/20 11:47:52;;;;;;;5.63;5.13;;;18.10;90.30;;;;;;5104355;28;20024;-41
2021/09/20 11:50:23;;;;;;;7.85;5.10;;;18.20;89.80;;;;;;5111786;28;20410;-39
2021/09/20 11:52:52;;;;;;;5.65;5.05;;;18.20;89.00;;;;;;5110378;28;20055;-35
2021/09/20 11:55:30;;;;;;;6.70;5.20;;;18.10;88.10;;;;;;5111271;28;20454;-38
2021/09/20 11:58:02;;;;;;;5.88;4.95;;;18.00;88.20;;;;;;5109289;28;20467;-39
2021/09/20 12:00:30;;;;;;;6.45;4.63;;;17.90;87.90;;;;;;5111707;28;20031;-39
2021/09/20 12:03:02;;;;;;;5.28;4.65;;;17.90;87.90;;;;;;5111039;28;20106;-38
2021/09/20 12:05:37;;;;;;;7.05;4.57;;;17.80;87.90;;;;;;5111397;28;20046;-38
2021/09/20 12:08:14;;;;;;;5.03;4.50;;;17.90;87.50;;;;;;5111009;28;20030;-41
2021/09/20 12:10:58;;;;;;;5.80;4.18;;;17.80;87.60;;;;;;5111020;28;20032;-39
2021/09/20 12:13:29;;;;;;;5.28;4.65;;;17.80;88.30;;;;;;5111328;28;20413;-40
2021/09/20 12:16:01;;;;;;;5.00;4.50;;;17.80;88.60;;;;;;5110992;28;20487;-38
2021/09/20 12:18:30;;;;;;;5.38;4.88;;;17.80;88.80;;;;;;5110704;28;20429;-40
2021/09/20 12:21:01;;;;;;;6.18;5.28;;;17.80;88.70;;;;;;5109774;28;20024;-41
2021/09/20 12:23:35;;;;;;;5.35;4.85;;;17.90;88.40;;;;;;5109957;28;20028;-39
2021/09/20 12:26:05;;;;;;;8.38;5.70;;;17.80;88.10;;;;;;5109846;28;20032;-37
2021/09/20 12:28:37;;;;;;;5.28;4.72;;;17.80;88.30;;;;;;5102288;28;20038;-40
2021/09/20 12:31:40;;;;;;;5.45;4.70;;;17.90;88.50;;;;;;5109514;28;20027;-37
2021/09/20 12:34:11;;;;;;;6.78;5.20;;;18.00;88.30;;;;;;5007735;28;20536;-40
2021/09/20 12:36:57;;;;;;;5.93;5.13;;;18.00;88.10;;;;;;5086262;28;20149;-40
2021/09/20 12:39:28;;;;;;;7.15;5.28;;;18.00;87.70;;;;;;5110799;28;20024;-39
2021/09/20 12:42:10;;;;;;;8.18;5.97;;;18.10;87.90;;;;;;5109222;28;20028;-37
2021/09/20 12:44:50;;;;;;;6.10;5.30;;;18.10;86.70;;;;;;5111200;28;20049;-39
2021/09/20 12:47:17;;;;;;;5.10;4.60;;;18.00;87.10;;;;;;5109273;28;20102;-40
2021/09/20 12:50:06;;;;;;;5.90;5.30;;;18.00;87.50;;;;;;5109247;28;20054;-40
2021/09/20 12:52:41;;;;;;;5.55;4.82;;;17.90;87.10;;;;;;5110402;28;20020;-39
2021/09/20 12:55:07;;;;;;;5.65;4.95;;;17.90;86.90;;;;;;5109831;28;20103;-41